createdAt,value
2019-01-27T00:00:01.595Z,993.21
2019-01-27T00:01:01.572Z,993.28
2019-01-27T00:02:01.548Z,993.24
2019-01-27T00:03:01.531Z,993.22
2019-01-27T00:04:01.504Z,993.20
2019-01-27T00:05:01.480Z,993.14
2019-01-27T00:06:01.456Z,993.13
2019-01-27T00:07:01.437Z,993.11
2019-01-27T00:08:01.408Z,993.05
2019-01-27T00:09:01.390Z,993.13
2019-01-27T00:10:01.365Z,993.11
2019-01-27T00:11:01.344Z,993.04
2019-01-27T00:12:01.318Z,993.09
2019-01-27T00:13:01.297Z,993.11
2019-01-27T00:14:01.274Z,993.09
2019-01-27T00:15:01.246Z,993.07
2019-01-27T00:16:01.226Z,993.11
2019-01-27T00:17:01.203Z,993.01
2019-01-27T00:18:01.178Z,993.04
2019-01-27T00:19:01.159Z,993.04
2019-01-27T00:20:01.133Z,993.00
2019-01-27T00:21:01.110Z,993.01
2019-01-27T00:22:01.088Z,993.01
2019-01-27T00:23:01.064Z,992.98
2019-01-27T00:24:01.047Z,993.02
2019-01-27T00:25:01.016Z,993.06
2019-01-27T00:26:01.000Z,993.02
2019-01-27T00:27:00.971Z,993.02
2019-01-27T00:28:00.948Z,992.98
2019-01-27T00:29:00.930Z,993.01
2019-01-27T00:30:00.917Z,992.99
2019-01-27T00:31:00.876Z,992.98
2019-01-27T00:32:00.854Z,992.94
2019-01-27T00:33:00.833Z,992.91
2019-01-27T00:34:00.810Z,992.93
2019-01-27T00:35:00.784Z,992.96
2019-01-27T00:36:00.761Z,992.94
2019-01-27T00:37:00.760Z,992.98
2019-01-27T00:38:00.715Z,992.97
2019-01-27T00:39:00.692Z,992.96
2019-01-27T00:40:00.672Z,992.94
2019-01-27T00:41:00.647Z,992.89
2019-01-27T00:42:00.624Z,992.90
2019-01-27T00:43:00.604Z,992.85
2019-01-27T00:44:00.578Z,992.86
2019-01-27T00:45:00.556Z,992.82
2019-01-27T00:46:00.533Z,992.87
2019-01-27T00:47:00.511Z,992.82
2019-01-27T00:48:00.490Z,992.85
2019-01-27T00:49:00.462Z,992.85
2019-01-27T00:50:00.442Z,992.83
2019-01-27T00:51:00.417Z,992.82
2019-01-27T00:52:00.399Z,992.77
2019-01-27T00:53:00.378Z,992.77
2019-01-27T00:54:00.346Z,992.82
2019-01-27T00:55:00.325Z,992.81
2019-01-27T00:56:00.302Z,992.82
2019-01-27T00:57:00.277Z,992.82
2019-01-27T00:58:00.255Z,992.78
2019-01-27T00:59:00.231Z,992.81
2019-01-27T01:00:00.253Z,992.78
2019-01-27T01:01:00.188Z,992.78
2019-01-27T01:02:00.164Z,992.73
2019-01-27T01:03:00.140Z,992.73
2019-01-27T01:04:00.119Z,992.69
2019-01-27T01:05:00.101Z,992.68
2019-01-27T01:06:00.071Z,992.70
2019-01-27T01:07:00.047Z,992.71
2019-01-27T01:08:00.021Z,992.68
2019-01-27T01:08:59.997Z,992.67
2019-01-27T01:09:59.983Z,992.69
2019-01-27T01:10:59.953Z,992.69
2019-01-27T01:11:59.932Z,992.68
2019-01-27T01:12:59.908Z,992.65
2019-01-27T01:13:59.889Z,992.60
2019-01-27T01:14:59.859Z,992.63
2019-01-27T01:15:59.845Z,992.61
2019-01-27T01:16:59.815Z,992.61
2019-01-27T01:17:59.789Z,992.57
2019-01-27T01:18:59.769Z,992.54
2019-01-27T01:19:59.741Z,992.46
2019-01-27T01:20:59.724Z,992.46
2019-01-27T01:21:59.695Z,992.47
2019-01-27T01:22:59.684Z,992.48
2019-01-27T01:23:59.657Z,992.46
2019-01-27T01:24:59.634Z,992.41
2019-01-27T01:25:59.607Z,992.42
2019-01-27T01:26:59.586Z,992.39
2019-01-27T01:27:59.562Z,992.39
2019-01-27T01:28:59.539Z,992.36
2019-01-27T01:29:59.514Z,992.37
2019-01-27T01:30:59.488Z,992.33
2019-01-27T01:31:59.477Z,992.36
2019-01-27T01:32:59.447Z,992.31
2019-01-27T01:33:59.426Z,992.28
2019-01-27T01:34:59.401Z,992.29
2019-01-27T01:35:59.379Z,992.26
2019-01-27T01:36:59.357Z,992.23
2019-01-27T01:37:59.328Z,992.18
2019-01-27T01:38:59.305Z,992.16
2019-01-27T01:39:59.283Z,992.17
2019-01-27T01:40:59.261Z,992.12
2019-01-27T01:41:59.240Z,992.09
2019-01-27T01:42:59.214Z,992.11
2019-01-27T01:43:59.192Z,992.10
2019-01-27T01:44:59.171Z,992.06
2019-01-27T01:45:59.146Z,992.07
2019-01-27T01:46:59.122Z,992.08
2019-01-27T01:47:59.100Z,992.04
2019-01-27T01:48:59.074Z,991.99
2019-01-27T01:49:59.050Z,991.95
2019-01-27T01:50:59.026Z,991.96
2019-01-27T01:51:59.009Z,991.94
2019-01-27T01:52:58.980Z,991.89
2019-01-27T01:53:58.963Z,991.86
2019-01-27T01:54:58.938Z,991.83
2019-01-27T01:55:58.920Z,991.78
2019-01-27T01:56:58.888Z,991.72
2019-01-27T01:57:58.875Z,991.75
2019-01-27T01:58:58.845Z,991.63
2019-01-27T01:59:58.826Z,991.67
2019-01-27T02:00:58.798Z,991.66
2019-01-27T02:01:58.776Z,991.66
2019-01-27T02:02:58.756Z,991.57
2019-01-27T02:03:58.728Z,991.60
2019-01-27T02:04:58.705Z,991.54
2019-01-27T02:05:58.680Z,991.53
2019-01-27T02:06:58.658Z,991.48
2019-01-27T02:07:58.636Z,991.55
2019-01-27T02:08:58.614Z,991.51
2019-01-27T02:09:58.594Z,991.47
2019-01-27T02:10:58.566Z,991.46
2019-01-27T02:11:58.542Z,991.44
2019-01-27T02:12:58.522Z,991.41
2019-01-27T02:13:58.500Z,991.32
2019-01-27T02:14:58.474Z,991.31
2019-01-27T02:15:58.456Z,991.31
2019-01-27T02:16:58.431Z,991.31
2019-01-27T02:17:58.412Z,991.30
2019-01-27T02:18:58.383Z,991.28
2019-01-27T02:19:58.369Z,991.27
2019-01-27T02:20:58.342Z,991.27
2019-01-27T02:21:58.314Z,991.23
2019-01-27T02:22:58.288Z,991.19
2019-01-27T02:23:58.272Z,991.19
2019-01-27T02:24:58.245Z,991.18
2019-01-27T02:25:58.221Z,991.14
2019-01-27T02:26:58.198Z,991.15
2019-01-27T02:27:58.177Z,991.13
2019-01-27T02:28:58.149Z,991.16
2019-01-27T02:29:58.131Z,991.10
2019-01-27T02:30:58.103Z,991.10
2019-01-27T02:31:58.081Z,991.12
2019-01-27T02:32:58.054Z,991.09
2019-01-27T02:33:58.035Z,991.05
2019-01-27T02:34:58.015Z,991.06
2019-01-27T02:35:57.991Z,991.03
2019-01-27T02:36:57.970Z,991.00
2019-01-27T02:37:57.942Z,990.94
2019-01-27T02:38:57.917Z,990.90
2019-01-27T02:39:57.910Z,990.89
2019-01-27T02:40:57.874Z,990.91
2019-01-27T02:41:57.852Z,990.83
2019-01-27T02:42:57.826Z,990.87
2019-01-27T02:43:57.805Z,990.87
2019-01-27T02:44:57.784Z,990.86
2019-01-27T02:45:57.768Z,990.80
2019-01-27T02:46:57.737Z,990.78
2019-01-27T02:47:57.709Z,990.76
2019-01-27T02:48:57.685Z,990.76
2019-01-27T02:49:57.662Z,990.74
2019-01-27T02:50:57.677Z,990.68
2019-01-27T02:51:57.619Z,990.61
2019-01-27T02:52:57.598Z,990.59
2019-01-27T02:53:57.571Z,990.58
2019-01-27T02:54:57.546Z,990.52
2019-01-27T02:55:57.524Z,990.51
2019-01-27T02:56:57.500Z,990.53
2019-01-27T02:57:57.488Z,990.55
2019-01-27T02:58:57.454Z,990.47
2019-01-27T02:59:57.428Z,990.50
2019-01-27T03:00:57.414Z,990.46
2019-01-27T03:01:57.385Z,990.44
2019-01-27T03:02:57.361Z,990.34
2019-01-27T03:03:57.342Z,990.38
2019-01-27T03:04:57.318Z,990.40
2019-01-27T03:05:57.291Z,990.36
2019-01-27T03:06:57.280Z,990.40
2019-01-27T03:07:57.247Z,990.39
2019-01-27T03:08:57.221Z,990.35
2019-01-27T03:09:57.199Z,990.31
2019-01-27T03:10:57.178Z,990.27
2019-01-27T03:11:57.155Z,990.30
2019-01-27T03:12:57.129Z,990.21
2019-01-27T03:13:57.107Z,990.22
2019-01-27T03:14:57.083Z,990.22
2019-01-27T03:15:57.065Z,990.20
2019-01-27T03:16:57.035Z,990.19
2019-01-27T03:17:57.020Z,990.16
2019-01-27T03:18:56.993Z,990.13
2019-01-27T03:19:56.968Z,990.09
2019-01-27T03:20:56.943Z,990.15
2019-01-27T03:21:56.930Z,990.12
2019-01-27T03:22:56.904Z,990.11
2019-01-27T03:23:56.874Z,990.09
2019-01-27T03:24:56.848Z,990.09
2019-01-27T03:25:56.829Z,990.10
2019-01-27T03:26:56.804Z,990.07
2019-01-27T03:27:56.781Z,990.04
2019-01-27T03:28:56.753Z,990.06
2019-01-27T03:29:56.735Z,990.05
2019-01-27T03:30:56.709Z,990.03
2019-01-27T03:31:56.688Z,989.97
2019-01-27T03:32:56.664Z,989.97
2019-01-27T03:33:56.641Z,989.93
2019-01-27T03:34:56.616Z,989.95
2019-01-27T03:35:56.591Z,989.97
2019-01-27T03:36:56.569Z,989.95
2019-01-27T03:37:56.562Z,989.95
2019-01-27T03:38:56.526Z,989.98
2019-01-27T03:39:56.498Z,989.95
2019-01-27T03:40:56.482Z,989.91
2019-01-27T03:41:56.455Z,989.93
2019-01-27T03:42:56.427Z,989.90
2019-01-27T03:43:56.407Z,989.96
2019-01-27T03:44:56.391Z,989.85
2019-01-27T03:45:56.359Z,989.86
2019-01-27T03:46:56.337Z,989.81
2019-01-27T03:47:56.335Z,989.78
2019-01-27T03:48:56.293Z,989.75
2019-01-27T03:49:56.267Z,989.77
2019-01-27T03:50:56.246Z,989.77
2019-01-27T03:51:56.225Z,989.70
2019-01-27T03:52:56.198Z,989.71
2019-01-27T03:53:56.178Z,989.71
2019-01-27T03:54:56.151Z,989.70
2019-01-27T03:55:56.129Z,989.68
2019-01-27T03:56:56.105Z,989.71
2019-01-27T03:57:56.080Z,989.71
2019-01-27T03:58:56.057Z,989.65
2019-01-27T03:59:56.036Z,989.59
2019-01-27T04:00:56.014Z,989.61
2019-01-27T04:01:55.990Z,989.61
2019-01-27T04:02:55.967Z,989.56
2019-01-27T04:03:55.950Z,989.60
2019-01-27T04:04:55.921Z,989.58
2019-01-27T04:05:55.893Z,989.58
2019-01-27T04:06:55.870Z,989.58
2019-01-27T04:07:55.850Z,989.56
2019-01-27T04:08:55.830Z,989.48
2019-01-27T04:09:55.806Z,989.40
2019-01-27T04:10:55.781Z,989.36
2019-01-27T04:11:55.762Z,989.38
2019-01-27T04:12:55.888Z,989.36
2019-01-27T04:13:55.711Z,989.35
2019-01-27T04:14:55.685Z,989.37
2019-01-27T04:15:55.664Z,989.31
2019-01-27T04:16:55.644Z,989.29
2019-01-27T04:17:55.615Z,989.25
2019-01-27T04:18:55.592Z,989.25
2019-01-27T04:19:55.574Z,989.21
2019-01-27T04:20:55.547Z,989.17
2019-01-27T04:21:55.524Z,989.18
2019-01-27T04:22:55.502Z,989.14
2019-01-27T04:23:55.476Z,989.11
2019-01-27T04:24:55.454Z,989.10
2019-01-27T04:25:55.430Z,989.06
2019-01-27T04:26:55.404Z,989.09
2019-01-27T04:27:55.381Z,989.12
2019-01-27T04:28:55.363Z,989.06
2019-01-27T04:29:55.336Z,989.06
2019-01-27T04:30:55.323Z,989.03
2019-01-27T04:31:55.286Z,989.04
2019-01-27T04:32:55.266Z,989.04
2019-01-27T04:33:55.246Z,989.01
2019-01-27T04:34:55.216Z,988.99
2019-01-27T04:35:55.197Z,989.00
2019-01-27T04:36:55.215Z,989.00
2019-01-27T04:37:55.150Z,989.00
2019-01-27T04:38:55.132Z,988.97
2019-01-27T04:39:55.100Z,988.98
2019-01-27T04:40:55.082Z,988.98
2019-01-27T04:41:55.072Z,988.98
2019-01-27T04:42:55.032Z,988.94
2019-01-27T04:43:56.466Z,988.89
2019-01-27T04:44:54.986Z,988.90
2019-01-27T04:45:54.962Z,988.85
2019-01-27T04:46:54.939Z,988.83
2019-01-27T04:47:54.918Z,988.85
2019-01-27T04:48:54.892Z,988.86
2019-01-27T04:49:54.872Z,988.88
2019-01-27T04:50:54.850Z,988.87
2019-01-27T04:51:54.825Z,988.83
2019-01-27T04:52:54.812Z,988.79
2019-01-27T04:53:54.781Z,988.78
2019-01-27T04:54:54.753Z,988.82
2019-01-27T04:55:54.736Z,988.75
2019-01-27T04:56:54.710Z,988.76
2019-01-27T04:57:54.690Z,988.72
2019-01-27T04:58:54.664Z,988.74
2019-01-27T04:59:54.641Z,988.71
2019-01-27T05:00:54.614Z,988.70
2019-01-27T05:01:54.606Z,988.68
2019-01-27T05:02:54.566Z,988.70
2019-01-27T05:03:54.546Z,988.66
2019-01-27T05:04:54.520Z,988.65
2019-01-27T05:05:54.497Z,988.63
2019-01-27T05:06:54.475Z,988.62
2019-01-27T05:07:54.451Z,988.59
2019-01-27T05:08:54.429Z,988.61
2019-01-27T05:09:54.408Z,988.59
2019-01-27T05:10:54.380Z,988.57
2019-01-27T05:11:54.357Z,988.60
2019-01-27T05:12:54.342Z,988.61
2019-01-27T05:13:54.317Z,988.60
2019-01-27T05:14:54.293Z,988.54
2019-01-27T05:15:54.269Z,988.55
2019-01-27T05:16:54.238Z,988.56
2019-01-27T05:17:54.226Z,988.57
2019-01-27T05:18:54.204Z,988.47
2019-01-27T05:19:54.171Z,988.50
2019-01-27T05:20:54.146Z,988.45
2019-01-27T05:21:54.121Z,988.36
2019-01-27T05:22:54.103Z,988.42
2019-01-27T05:23:54.080Z,988.36
2019-01-27T05:24:54.055Z,988.41
2019-01-27T05:25:54.034Z,988.36
2019-01-27T05:26:54.007Z,988.37
2019-01-27T05:27:53.984Z,988.34
2019-01-27T05:28:53.959Z,988.34
2019-01-27T05:29:53.942Z,988.30
2019-01-27T05:30:53.919Z,988.28
2019-01-27T05:31:53.890Z,988.29
2019-01-27T05:32:53.870Z,988.30
2019-01-27T05:33:53.852Z,988.26
2019-01-27T05:34:53.826Z,988.28
2019-01-27T05:35:53.799Z,988.29
2019-01-27T05:36:53.773Z,988.26
2019-01-27T05:37:53.756Z,988.24
2019-01-27T05:38:53.732Z,988.19
2019-01-27T05:39:53.708Z,988.19
2019-01-27T05:40:53.701Z,988.22
2019-01-27T05:41:53.717Z,988.18
2019-01-27T05:42:53.636Z,988.13
2019-01-27T05:43:53.614Z,988.09
2019-01-27T05:44:53.591Z,988.08
2019-01-27T05:45:53.576Z,988.08
2019-01-27T05:46:53.542Z,988.10
2019-01-27T05:47:53.518Z,988.13
2019-01-27T05:48:53.495Z,988.00
2019-01-27T05:49:53.475Z,988.04
2019-01-27T05:50:53.547Z,988.05
2019-01-27T05:51:53.423Z,988.04
2019-01-27T05:52:53.402Z,988.07
2019-01-27T05:53:53.381Z,988.00
2019-01-27T05:54:53.356Z,988.02
2019-01-27T05:55:53.345Z,987.93
2019-01-27T05:56:56.558Z,988.01
2019-01-27T05:57:53.285Z,987.94
2019-01-27T05:58:53.267Z,987.97
2019-01-27T05:59:53.238Z,987.96
2019-01-27T06:00:53.216Z,987.98
2019-01-27T06:01:53.189Z,987.96
2019-01-27T06:02:53.165Z,987.95
2019-01-27T06:03:53.142Z,987.94
2019-01-27T06:04:53.123Z,987.88
2019-01-27T06:05:53.103Z,987.90
2019-01-27T06:06:53.075Z,987.91
2019-01-27T06:07:53.052Z,987.86
2019-01-27T06:08:53.029Z,987.87
2019-01-27T06:09:53.006Z,987.82
2019-01-27T06:10:52.982Z,987.86
2019-01-27T06:11:52.959Z,987.84
2019-01-27T06:12:52.934Z,987.82
2019-01-27T06:13:52.923Z,987.84
2019-01-27T06:14:52.888Z,987.76
2019-01-27T06:15:52.865Z,987.78
2019-01-27T06:16:52.839Z,987.76
2019-01-27T06:17:52.816Z,987.77
2019-01-27T06:18:52.797Z,987.74
2019-01-27T06:19:52.769Z,987.68
2019-01-27T06:20:52.750Z,987.59
2019-01-27T06:21:52.725Z,987.64
2019-01-27T06:22:52.696Z,987.63
2019-01-27T06:23:52.677Z,987.66
2019-01-27T06:24:52.664Z,987.59
2019-01-27T06:25:52.638Z,987.61
2019-01-27T06:26:52.611Z,987.59
2019-01-27T06:27:52.590Z,987.56
2019-01-27T06:28:52.558Z,987.51
2019-01-27T06:29:52.536Z,987.51
2019-01-27T06:30:52.511Z,987.48
2019-01-27T06:31:52.492Z,987.49
2019-01-27T06:32:52.468Z,987.48
2019-01-27T06:33:52.443Z,987.44
2019-01-27T06:34:52.428Z,987.40
2019-01-27T06:35:52.398Z,987.41
2019-01-27T06:36:52.424Z,987.38
2019-01-27T06:37:52.347Z,987.44
2019-01-27T06:38:52.326Z,987.46
2019-01-27T06:39:52.305Z,987.39
2019-01-27T06:40:52.279Z,987.39
2019-01-27T06:41:52.256Z,987.38
2019-01-27T06:42:52.232Z,987.38
2019-01-27T06:43:52.210Z,987.37
2019-01-27T06:44:52.192Z,987.42
2019-01-27T06:45:52.163Z,987.39
2019-01-27T06:46:52.139Z,987.41
2019-01-27T06:47:52.117Z,987.36
2019-01-27T06:48:52.089Z,987.34
2019-01-27T06:49:52.066Z,987.36
2019-01-27T06:50:52.044Z,987.33
2019-01-27T06:51:52.013Z,987.30
2019-01-27T06:52:51.998Z,987.31
2019-01-27T06:53:51.981Z,987.29
2019-01-27T06:54:51.947Z,987.28
2019-01-27T06:55:51.925Z,987.27
2019-01-27T06:56:51.902Z,987.32
2019-01-27T06:57:51.878Z,987.30
2019-01-27T06:58:51.855Z,987.28
2019-01-27T06:59:51.831Z,987.25
2019-01-27T07:00:51.810Z,987.29
2019-01-27T07:01:51.782Z,987.31
2019-01-27T07:02:51.758Z,987.29
2019-01-27T07:03:53.257Z,987.26
2019-01-27T07:04:51.716Z,987.23
2019-01-27T07:05:51.692Z,987.23
2019-01-27T07:06:51.666Z,987.23
2019-01-27T07:07:51.644Z,987.25
2019-01-27T07:08:51.624Z,987.23
2019-01-27T07:09:51.594Z,987.22
2019-01-27T07:10:51.581Z,987.19
2019-01-27T07:11:51.550Z,987.24
2019-01-27T07:12:51.525Z,987.19
2019-01-27T07:13:51.502Z,987.24
2019-01-27T07:14:51.478Z,987.22
2019-01-27T07:15:51.460Z,987.14
2019-01-27T07:16:51.436Z,987.14
2019-01-27T07:17:51.416Z,987.09
2019-01-27T07:18:51.439Z,987.09
2019-01-27T07:19:51.364Z,987.09
2019-01-27T07:20:51.341Z,987.08
2019-01-27T07:21:51.330Z,987.10
2019-01-27T07:22:51.290Z,987.06
2019-01-27T07:23:51.278Z,987.07
2019-01-27T07:24:51.242Z,987.07
2019-01-27T07:25:51.225Z,987.02
2019-01-27T07:26:51.204Z,987.03
2019-01-27T07:27:51.173Z,987.01
2019-01-27T07:28:51.154Z,987.01
2019-01-27T07:29:51.131Z,987.03
2019-01-27T07:30:51.106Z,987.03
2019-01-27T07:31:51.085Z,986.96
2019-01-27T07:32:51.058Z,986.97
2019-01-27T07:33:51.034Z,986.94
2019-01-27T07:34:51.021Z,986.94
2019-01-27T07:35:50.988Z,986.93
2019-01-27T07:36:50.960Z,986.98
2019-01-27T07:37:50.946Z,987.00
2019-01-27T07:38:50.919Z,986.92
2019-01-27T07:39:50.896Z,986.94
2019-01-27T07:40:50.870Z,986.92
2019-01-27T07:41:50.851Z,986.92
2019-01-27T07:42:50.829Z,986.95
2019-01-27T07:43:50.802Z,986.86
2019-01-27T07:44:50.778Z,986.88
2019-01-27T07:45:50.755Z,986.85
2019-01-27T07:46:50.729Z,986.81
2019-01-27T07:47:50.710Z,986.84
2019-01-27T07:48:50.684Z,986.82
2019-01-27T07:49:50.664Z,986.80
2019-01-27T07:50:50.634Z,986.73
2019-01-27T07:51:50.612Z,986.76
2019-01-27T07:52:50.591Z,986.74
2019-01-27T07:53:50.566Z,986.79
2019-01-27T07:54:50.586Z,986.71
2019-01-27T07:55:50.520Z,986.71
2019-01-27T07:56:50.500Z,986.77
2019-01-27T07:57:50.473Z,986.73
2019-01-27T07:58:50.454Z,986.67
2019-01-27T07:59:50.432Z,986.64
2019-01-27T08:00:50.402Z,986.71
2019-01-27T08:01:50.384Z,986.66
2019-01-27T08:02:50.354Z,986.61
2019-01-27T08:03:50.332Z,986.58
2019-01-27T08:04:50.313Z,986.58
2019-01-27T08:05:50.286Z,986.57
2019-01-27T08:06:50.264Z,986.58
2019-01-27T08:07:50.241Z,986.52
2019-01-27T08:08:51.326Z,986.54
2019-01-27T08:09:50.196Z,986.54
2019-01-27T08:10:50.171Z,986.54
2019-01-27T08:11:50.145Z,986.55
2019-01-27T08:12:50.123Z,986.56
2019-01-27T08:13:50.100Z,986.56
2019-01-27T08:14:50.075Z,986.53
2019-01-27T08:15:50.059Z,986.50
2019-01-27T08:16:50.032Z,986.53
2019-01-27T08:17:50.005Z,986.52
2019-01-27T08:18:49.984Z,986.53
2019-01-27T08:19:49.963Z,986.52
2019-01-27T08:20:49.938Z,986.52
2019-01-27T08:21:49.910Z,986.51
2019-01-27T08:22:49.899Z,986.55
2019-01-27T08:23:49.869Z,986.46
2019-01-27T08:24:49.846Z,986.45
2019-01-27T08:25:49.823Z,986.47
2019-01-27T08:26:49.844Z,986.39
2019-01-27T08:27:49.776Z,986.40
2019-01-27T08:28:49.750Z,986.39
2019-01-27T08:29:49.725Z,986.39
2019-01-27T08:30:49.707Z,986.43
2019-01-27T08:31:49.683Z,986.44
2019-01-27T08:32:49.660Z,986.34
2019-01-27T08:33:49.635Z,986.37
2019-01-27T08:34:49.615Z,986.36
2019-01-27T08:35:49.594Z,986.39
2019-01-27T08:36:49.566Z,986.37
2019-01-27T08:37:49.541Z,986.33
2019-01-27T08:38:49.517Z,986.35
2019-01-27T08:39:49.496Z,986.35
2019-01-27T08:40:49.483Z,986.32
2019-01-27T08:41:49.447Z,986.35
2019-01-27T08:42:49.429Z,986.31
2019-01-27T08:43:49.401Z,986.36
2019-01-27T08:44:49.378Z,986.36
2019-01-27T08:45:49.364Z,986.35
2019-01-27T08:46:49.330Z,986.32
2019-01-27T08:47:49.310Z,986.34
2019-01-27T08:48:49.283Z,986.33
2019-01-27T08:49:49.265Z,986.31
2019-01-27T08:50:49.241Z,986.25
2019-01-27T08:51:49.220Z,986.30
2019-01-27T08:52:49.197Z,986.23
2019-01-27T08:53:49.178Z,986.35
2019-01-27T08:54:49.149Z,986.25
2019-01-27T08:55:49.124Z,986.26
2019-01-27T08:56:49.099Z,986.24
2019-01-27T08:57:49.080Z,986.22
2019-01-27T08:58:49.055Z,986.24
2019-01-27T08:59:49.037Z,986.21
2019-01-27T09:00:49.011Z,986.24
2019-01-27T09:01:48.981Z,986.17
2019-01-27T09:02:48.963Z,986.25
2019-01-27T09:03:48.937Z,986.18
2019-01-27T09:04:48.919Z,986.18
2019-01-27T09:05:48.895Z,986.15
2019-01-27T09:06:48.871Z,986.13
2019-01-27T09:07:48.852Z,986.08
2019-01-27T09:08:48.825Z,986.09
2019-01-27T09:09:48.808Z,986.05
2019-01-27T09:10:48.778Z,986.06
2019-01-27T09:11:48.760Z,986.09
2019-01-27T09:12:48.733Z,986.04
2019-01-27T09:13:48.710Z,986.06
2019-01-27T09:14:48.687Z,986.04
2019-01-27T09:15:48.667Z,986.00
2019-01-27T09:16:48.635Z,986.07
2019-01-27T09:17:48.620Z,986.02
2019-01-27T09:18:48.599Z,986.06
2019-01-27T09:19:48.572Z,986.04
2019-01-27T09:20:48.547Z,985.99
2019-01-27T09:21:48.533Z,986.04
2019-01-27T09:22:48.501Z,986.02
2019-01-27T09:23:48.481Z,986.06
2019-01-27T09:24:48.460Z,986.04
2019-01-27T09:25:48.433Z,986.04
2019-01-27T09:26:48.411Z,985.99
2019-01-27T09:27:48.385Z,985.96
2019-01-27T09:28:48.371Z,985.96
2019-01-27T09:29:48.345Z,986.00
2019-01-27T09:30:48.317Z,986.00
2019-01-27T09:31:48.293Z,985.89
2019-01-27T09:32:48.274Z,985.88
2019-01-27T09:33:48.248Z,985.93
2019-01-27T09:34:48.226Z,985.97
2019-01-27T09:35:48.204Z,985.97
2019-01-27T09:36:48.181Z,985.95
2019-01-27T09:37:48.159Z,985.97
2019-01-27T09:38:48.137Z,986.00
2019-01-27T09:39:48.113Z,986.02
2019-01-27T09:40:48.095Z,986.16
2019-01-27T09:41:48.070Z,986.17
2019-01-27T09:42:48.040Z,986.23
2019-01-27T09:43:48.025Z,986.17
2019-01-27T09:44:47.997Z,986.29
2019-01-27T09:45:57.592Z,986.22
2019-01-27T09:46:47.969Z,986.38
2019-01-27T09:47:47.931Z,986.17
2019-01-27T09:48:47.910Z,986.09
2019-01-27T09:49:47.887Z,986.07
2019-01-27T09:50:47.864Z,986.05
2019-01-27T09:51:47.843Z,986.06
2019-01-27T09:52:47.827Z,985.96
2019-01-27T09:53:47.799Z,985.91
2019-01-27T09:54:47.778Z,985.92
2019-01-27T09:55:47.755Z,985.86
2019-01-27T09:56:47.737Z,985.83
2019-01-27T09:57:47.712Z,985.72
2019-01-27T09:58:47.692Z,985.81
2019-01-27T09:59:47.672Z,985.77
2019-01-27T10:00:47.648Z,985.75
2019-01-27T10:01:47.630Z,985.70
2019-01-27T10:02:47.609Z,985.69
2019-01-27T10:03:47.585Z,985.68
2019-01-27T10:04:47.566Z,985.63
2019-01-27T10:05:47.542Z,985.67
2019-01-27T10:06:47.522Z,985.57
2019-01-27T10:07:47.499Z,985.64
2019-01-27T10:08:47.481Z,985.67
2019-01-27T10:09:47.460Z,985.70
2019-01-27T10:10:47.434Z,985.73
2019-01-27T10:11:47.420Z,985.65
2019-01-27T10:12:47.392Z,985.67
2019-01-27T10:13:47.376Z,985.59
2019-01-27T10:14:47.347Z,985.58
2019-01-27T10:15:47.328Z,985.61
2019-01-27T10:16:47.304Z,985.62
2019-01-27T10:17:47.283Z,985.58
2019-01-27T10:18:47.261Z,985.51
2019-01-27T10:19:47.241Z,985.49
2019-01-27T10:20:47.220Z,985.53
2019-01-27T10:21:47.204Z,985.47
2019-01-27T10:22:47.176Z,985.46
2019-01-27T10:23:47.153Z,985.43
2019-01-27T10:24:47.133Z,985.48
2019-01-27T10:25:47.104Z,985.39
2019-01-27T10:26:47.087Z,985.44
2019-01-27T10:27:47.063Z,985.41
2019-01-27T10:28:47.045Z,985.37
2019-01-27T10:29:47.022Z,985.37
2019-01-27T10:30:47.004Z,985.34
2019-01-27T10:31:46.980Z,985.45
2019-01-27T10:32:46.957Z,985.42
2019-01-27T10:33:46.935Z,985.43
2019-01-27T10:34:46.913Z,985.36
2019-01-27T10:35:46.894Z,985.34
2019-01-27T10:36:46.875Z,985.28
2019-01-27T10:37:46.852Z,985.26
2019-01-27T10:38:46.827Z,985.25
2019-01-27T10:39:46.800Z,985.30
2019-01-27T10:40:46.785Z,985.28
2019-01-27T10:41:46.759Z,985.24
2019-01-27T10:42:46.734Z,985.27
2019-01-27T10:43:46.712Z,985.27
2019-01-27T10:44:46.694Z,985.23
2019-01-27T10:45:46.686Z,985.22
2019-01-27T10:46:46.652Z,985.22
2019-01-27T10:47:46.921Z,985.25
2019-01-27T10:48:46.607Z,985.25
2019-01-27T10:49:46.584Z,985.24
2019-01-27T10:50:46.560Z,985.26
2019-01-27T10:51:46.540Z,985.23
2019-01-27T10:52:46.520Z,985.16
2019-01-27T10:53:46.503Z,985.20
2019-01-27T10:54:46.472Z,985.17
2019-01-27T10:55:46.450Z,985.17
2019-01-27T10:56:46.432Z,985.13
2019-01-27T10:57:46.413Z,985.11
2019-01-27T10:58:46.381Z,985.09
2019-01-27T10:59:46.361Z,985.11
2019-01-27T11:00:46.347Z,985.10
2019-01-27T11:01:46.320Z,985.08
2019-01-27T11:02:46.294Z,985.12
2019-01-27T11:03:46.275Z,985.10
2019-01-27T11:04:46.254Z,985.06
2019-01-27T11:05:46.230Z,985.04
2019-01-27T11:06:46.207Z,985.00
2019-01-27T11:07:46.187Z,984.99
2019-01-27T11:08:46.170Z,984.92
2019-01-27T11:09:46.142Z,984.91
2019-01-27T11:10:46.120Z,984.88
2019-01-27T11:11:46.100Z,984.84
2019-01-27T11:12:46.074Z,984.89
2019-01-27T11:13:46.055Z,984.79
2019-01-27T11:14:46.037Z,984.75
2019-01-27T11:15:46.023Z,984.75
2019-01-27T11:16:45.988Z,984.73
2019-01-27T11:17:45.978Z,984.74
2019-01-27T11:18:45.946Z,984.74
2019-01-27T11:19:45.925Z,984.79
2019-01-27T11:20:45.902Z,984.73
2019-01-27T11:21:45.881Z,984.78
2019-01-27T11:22:45.858Z,984.79
2019-01-27T11:23:45.835Z,984.76
2019-01-27T11:24:45.812Z,984.76
2019-01-27T11:25:45.792Z,984.74
2019-01-27T11:26:45.769Z,984.72
2019-01-27T11:27:45.751Z,984.65
2019-01-27T11:28:45.721Z,984.67
2019-01-27T11:29:45.703Z,984.67
2019-01-27T11:30:45.676Z,984.66
2019-01-27T11:31:45.657Z,984.63
2019-01-27T11:32:45.635Z,984.64
2019-01-27T11:33:45.612Z,984.65
2019-01-27T11:34:45.591Z,984.63
2019-01-27T11:35:45.564Z,984.56
2019-01-27T11:36:45.543Z,984.58
2019-01-27T11:37:45.535Z,984.51
2019-01-27T11:38:45.508Z,984.56
2019-01-27T11:39:45.477Z,984.53
2019-01-27T11:40:45.457Z,984.50
2019-01-27T11:41:45.432Z,984.54
2019-01-27T11:42:45.415Z,984.49
2019-01-27T11:43:45.396Z,984.46
2019-01-27T11:44:45.375Z,984.48
2019-01-27T11:45:45.345Z,984.45
2019-01-27T11:46:45.320Z,984.48
2019-01-27T11:47:45.305Z,984.44
2019-01-27T11:48:45.279Z,984.44
2019-01-27T11:49:45.256Z,984.42
2019-01-27T11:50:45.229Z,984.35
2019-01-27T11:51:45.212Z,984.34
2019-01-27T11:52:45.197Z,984.32
2019-01-27T11:53:45.166Z,984.31
2019-01-27T11:54:45.145Z,984.27
2019-01-27T11:55:45.128Z,984.26
2019-01-27T11:56:45.101Z,984.26
2019-01-27T11:57:45.076Z,984.26
2019-01-27T11:58:45.058Z,984.27
2019-01-27T11:59:45.030Z,984.29
2019-01-27T12:00:45.009Z,984.30
2019-01-27T12:01:44.988Z,984.29
2019-01-27T12:02:46.760Z,984.26
2019-01-27T12:03:44.947Z,984.32
2019-01-27T12:04:44.923Z,984.30
2019-01-27T12:05:44.897Z,984.23
2019-01-27T12:06:44.875Z,984.20
2019-01-27T12:07:44.856Z,984.15
2019-01-27T12:08:44.836Z,984.14
2019-01-27T12:09:44.812Z,984.12
2019-01-27T12:10:44.786Z,984.10
2019-01-27T12:11:44.763Z,984.13
2019-01-27T12:12:44.741Z,984.13
2019-01-27T12:13:44.723Z,984.13
2019-01-27T12:14:44.704Z,984.14
2019-01-27T12:15:44.678Z,984.18
2019-01-27T12:16:44.655Z,984.15
2019-01-27T12:17:44.631Z,984.11
2019-01-27T12:18:44.616Z,984.17
2019-01-27T12:19:44.583Z,984.11
2019-01-27T12:20:44.570Z,984.06
2019-01-27T12:21:44.547Z,984.08
2019-01-27T12:22:44.529Z,984.06
2019-01-27T12:23:44.496Z,984.07
2019-01-27T12:24:44.476Z,984.08
2019-01-27T12:25:44.456Z,984.04
2019-01-27T12:26:44.424Z,984.06
2019-01-27T12:27:44.414Z,983.99